Portada
METAR-TAF:

METAR-TAF

Aeropuertos :

Tabuk, Arabia Saudita

latitud: 28-22N, longitud: 036-36E, altitud: 778 m

Observación

El informe se hizo hace 59 minutos, a las 17:00 UTC
Viento 8 kt del norte
Temperatura 19°C
Humedad 24%
Presión 1016 hPa
Visibilidad 10 km o más
sin nubes por debajo de 1500 m y sin presencia de cumulonimbus.

METAR: OETB 021700Z 36008KT CAVOK 19/M02 Q1016 NOSIG

Hora: 20:59 (17:59 UTC)

Pronóstico

El informe se hizo hace 6 horas y 59 minutos, a las 11:00 UTC
Pronóstico válido del 02 a las 12 UTC al 03 a las 18 UTC
Viento 10 kt del oeste-suroeste
Visibilidad 10 km o más
sin nubes por debajo de 1500 m y sin presencia de cumulonimbus.
Evolucionando progresivamente
del 02 a las 18 UTC al 02 a las 20 UTC
Viento 3 kt con dirección variable
Evolucionando progresivamente
del 03 a las 09 UTC al 03 a las 11 UTC
Viento 15 kt del oeste-suroeste

TAF: OETB 021100Z 0212/0318 25010KT CAVOK BECMG 0218/0220 VRB03KT BECMG 0309/0311 24015KT

Observaciones y pronósticos meteorológicos de más de 4000 aeropuertos (mensajes METAR y TAF).

Los puntos amarillos y rojos representan las estaciones disponibles.

Ponga el ratón en el punto deseado para ver el nombre de la estación.

Haga clic para ver las observaciones y los pronósticos meteorológicos.

Para cambiar el mapa : haga clic en los botones verdes con una cruz de color negro para hacer un zoom, en el botón verde con un guión para alejar o en las flechas verdes para mapas adyacentes.


METAR-TAF: